Time;durP1;ratioP1;P1;durP2;ratioP2;P2;SDS_P1;SDS_P2;PMS_P1;PMS_P2;Temp;Humidity;BMP_temperature;BMP_pressure;BME280_temperature;BME280_humidity;BME280_pressure;Samples;Min_cycle;Max_cycle;Signal;HPM_P1;HPM_P2
2021/09/14 00:00:28;;;;;;;11.55;10.10;;;;;;;18.17;65.29;99314.60;1701609;84;21066;-39
2021/09/14 00:02:55;;;;;;;12.98;10.72;;;;;;;18.19;65.15;99313.61;1679288;84;21050;-39
2021/09/14 00:05:21;;;;;;;12.40;10.08;;;;;;;18.17;65.13;99313.23;1691270;83;21108;-39
2021/09/14 00:07:48;;;;;;;13.43;10.95;;;;;;;18.14;65.12;99308.58;1702159;84;21080;-39
2021/09/14 00:10:15;;;;;;;11.73;10.50;;;;;;;18.09;65.14;99313.92;1702490;84;21484;-39
2021/09/14 00:12:42;;;;;;;11.83;10.63;;;;;;;18.02;65.26;99309.10;1702391;84;21366;-39
2021/09/14 00:15:10;;;;;;;11.43;9.28;;;;;;;17.97;65.37;99305.44;1702364;84;21058;-39
2021/09/14 00:17:37;;;;;;;13.58;9.88;;;;;;;17.94;65.48;99314.50;1691078;84;21139;-39
2021/09/14 00:20:07;;;;;;;13.62;10.38;;;;;;;17.96;65.37;99314.87;1662269;84;21515;-39
2021/09/14 00:22:33;;;;;;;12.07;10.15;;;;;;;17.97;65.33;99315.82;1674007;85;20961;-39
2021/09/14 00:25:00;;;;;;;12.55;10.60;;;;;;;17.95;65.39;99314.09;1673990;85;21105;-39
2021/09/14 00:27:26;;;;;;;13.60;10.93;;;;;;;17.93;65.43;99315.67;1674004;85;21568;-39
2021/09/14 00:29:53;;;;;;;14.07;10.82;;;;;;;17.88;65.50;99312.02;1704207;83;21630;-39
2021/09/14 00:32:20;;;;;;;13.55;10.30;;;;;;;17.84;65.58;99309.91;1692254;83;20972;-39
2021/09/14 00:34:46;;;;;;;10.60;9.25;;;;;;;17.84;65.59;99315.39;1691440;84;21558;-39
2021/09/14 00:37:15;;;;;;;12.80;9.55;;;;;;;17.86;65.59;99310.29;1701990;83;21012;-39
2021/09/14 00:39:42;;;;;;;11.53;9.98;;;;;;;17.90;65.51;99314.55;1720418;83;21008;-39
2021/09/14 00:42:08;;;;;;;11.70;9.78;;;;;;;17.87;65.48;99312.60;1720374;83;21124;-39
2021/09/14 00:44:35;;;;;;;14.28;10.60;;;;;;;17.85;65.46;99311.47;1720432;83;21563;-39
2021/09/14 00:47:02;;;;;;;13.78;10.48;;;;;;;17.82;65.44;99310.31;1705552;82;21016;-39
2021/09/14 00:49:32;;;;;;;12.07;10.88;;;;;;;17.79;65.49;99307.80;1691663;84;20984;-39
2021/09/14 00:52:02;;;;;;;10.98;9.53;;;;;;;17.72;65.66;99309.23;1691915;84;21518;-40
2021/09/14 00:54:28;;;;;;;11.68;9.58;;;;;;;17.72;65.66;99306.50;1691750;84;21820;-40
2021/09/14 00:56:57;;;;;;;11.15;9.40;;;;;;;17.73;65.62;99302.58;1691557;84;21012;-40
2021/09/14 00:59:25;;;;;;;13.03;10.15;;;;;;;17.73;65.54;99298.46;1691704;84;21011;-40
2021/09/14 01:01:54;;;;;;;12.20;10.28;;;;;;;17.71;65.55;99296.73;1691976;83;21498;-40
2021/09/14 01:04:21;;;;;;;11.77;10.57;;;;;;;17.69;65.58;99310.06;1720739;83;21032;-40
2021/09/14 01:06:47;;;;;;;12.47;10.75;;;;;;;17.62;65.67;99309.38;1694201;83;21102;-40
2021/09/14 01:09:15;;;;;;;12.25;9.85;;;;;;;17.49;65.93;99311.80;1715943;83;21514;-40
2021/09/14 01:11:42;;;;;;;10.45;9.23;;;;;;;17.40;66.22;99311.50;1691883;84;21031;-41
2021/09/14 01:14:09;;;;;;;11.33;9.38;;;;;;;17.41;66.29;99315.81;1694320;83;20988;-40
2021/09/14 01:16:39;;;;;;;12.13;10.72;;;;;;;17.48;66.21;99323.95;1692984;83;21095;-40
2021/09/14 01:19:09;;;;;;;12.55;10.63;;;;;;;17.48;66.06;99315.73;1691820;83;21574;-40
2021/09/14 01:21:36;;;;;;;11.75;10.00;;;;;;;17.49;65.90;99317.88;1691536;84;20901;-40
2021/09/14 01:24:03;;;;;;;11.70;10.50;;;;;;;17.46;65.86;99320.07;1691740;84;21038;-40
2021/09/14 01:26:32;;;;;;;11.50;10.30;;;;;;;17.42;65.91;99319.33;1691685;84;21020;-40
2021/09/14 01:29:08;;;;;;;13.25;9.90;;;;;;;17.33;66.04;99321.18;1691274;84;21061;-40
2021/09/14 01:31:37;;;;;;;10.25;8.88;;;;;;;17.28;66.21;99312.02;1680735;84;21563;-40
2021/09/14 01:34:04;;;;;;;13.15;9.98;;;;;;;17.34;66.12;99321.34;1709097;84;20926;-40
2021/09/14 01:36:32;;;;;;;16.12;10.53;;;;;;;17.36;65.98;99316.25;1709341;84;21073;-40
2021/09/14 01:38:59;;;;;;;13.30;10.80;;;;;;;17.35;65.96;99320.16;1708438;83;21065;-40
2021/09/14 01:41:26;;;;;;;11.90;10.68;;;;;;;17.35;65.77;99325.64;1686867;85;21031;-40
2021/09/14 01:43:53;;;;;;;12.90;11.20;;;;;;;17.33;65.63;99328.03;1686581;85;21965;-40
2021/09/14 01:46:19;;;;;;;14.63;11.05;;;;;;;17.29;65.65;99326.67;1751024;82;20922;-40
2021/09/14 01:48:46;;;;;;;13.03;10.90;;;;;;;17.26;65.76;99326.70;1751088;82;21021;-40
2021/09/14 01:51:13;;;;;;;12.07;10.25;;;;;;;17.22;65.82;99322.64;1744471;80;21041;-40
2021/09/14 01:53:41;;;;;;;11.60;10.40;;;;;;;17.26;65.84;99322.59;1750346;82;21080;-40
2021/09/14 01:56:09;;;;;;;12.37;10.08;;;;;;;17.27;65.75;99325.53;1751391;82;21512;-40
2021/09/14 01:58:37;;;;;;;13.08;10.90;;;;;;;17.26;65.74;99324.75;1750854;81;21017;-40
2021/09/14 02:01:22;;;;;;;12.03;10.75;;;;;;;17.27;65.63;99326.91;1751016;82;20953;-40
2021/09/14 02:03:51;;;;;;;12.50;10.13;;;;;;;17.23;65.65;99326.91;1749392;81;21049;-40
2021/09/14 03:00:41;;;;;;;10.32;9.18;;;;;;;16.70;65.77;99356.67;1702580;84;21078;-39
2021/09/14 03:03:10;;;;;;;11.93;10.15;;;;;;;16.67;65.81;99351.97;1702277;84;20986;-40
2021/09/14 03:05:37;;;;;;;11.48;9.40;;;;;;;16.65;65.93;99357.09;1702288;84;21077;-40
2021/09/14 03:08:04;;;;;;;10.55;8.78;;;;;;;16.39;65.92;99326.30;1702277;84;21018;-39
2021/09/14 03:10:31;;;;;;;11.78;8.55;;;;;;;16.64;65.91;99365.89;1702190;84;21062;-40
2021/09/14 03:12:59;;;;;;;9.85;8.85;;;;;;;16.68;65.87;99378.95;1702346;84;21038;-40
2021/09/14 03:15:26;;;;;;;11.45;9.55;;;;;;;16.68;65.78;99370.75;1678444;84;21778;-39
2021/09/14 03:17:54;;;;;;;11.70;10.10;;;;;;;16.67;65.76;99376.61;1702177;84;20974;-39
2021/09/14 03:20:22;;;;;;;11.50;9.70;;;;;;;16.64;65.81;99379.58;1702418;84;21004;-39
2021/09/14 03:22:48;;;;;;;12.85;10.15;;;;;;;16.61;65.83;99384.45;1702323;84;21021;-40
2021/09/14 03:25:17;;;;;;;11.50;10.30;;;;;;;16.56;65.90;99382.69;1702471;84;21552;-39
2021/09/14 03:27:44;;;;;;;12.07;9.65;;;;;;;16.51;65.96;99382.52;1701796;84;21092;-40
2021/09/14 03:30:13;;;;;;;12.25;9.50;;;;;;;16.48;66.09;99386.06;1699300;84;20983;-40
2021/09/14 03:32:40;;;;;;;12.90;9.28;;;;;;;16.45;66.13;99388.23;1699273;84;20997;-39
2021/09/14 03:35:08;;;;;;;15.53;9.23;;;;;;;16.43;66.25;99390.00;1686659;83;21513;-40
2021/09/14 03:37:35;;;;;;;13.22;9.68;;;;;;;16.41;66.33;99388.84;1699142;84;21042;-39
2021/09/14 03:40:06;;;;;;;15.25;9.73;;;;;;;16.37;66.41;99386.69;1699524;84;21666;-39
2021/09/14 03:42:33;;;;;;;13.10;9.53;;;;;;;16.36;66.49;99390.63;1673554;84;21034;-40
2021/09/14 03:45:00;;;;;;;10.25;8.60;;;;;;;16.33;66.58;99381.83;1699247;84;21018;-40
2021/09/14 03:47:28;;;;;;;9.60;8.25;;;;;;;16.33;66.68;99379.09;1699126;84;21010;-40
2021/09/14 03:49:55;;;;;;;11.12;8.98;;;;;;;16.36;66.60;99385.16;1699344;84;21556;-39
2021/09/14 03:52:22;;;;;;;12.37;9.23;;;;;;;16.38;66.56;99388.25;1699278;84;21149;-40
2021/09/14 03:54:48;;;;;;;10.48;8.45;;;;;;;16.40;66.48;99390.80;1696371;83;21002;-39
2021/09/14 03:57:17;;;;;;;11.50;9.15;;;;;;;16.40;66.48;99394.13;1700126;82;20984;-39
2021/09/14 03:59:44;;;;;;;11.78;9.40;;;;;;;16.39;66.51;99382.98;1700390;84;21079;-39
2021/09/14 04:02:24;;;;;;;9.78;8.73;;;;;;;16.37;66.59;99390.80;1717976;83;21092;-39
2021/09/14 04:05:03;;;;;;;11.70;8.85;;;;;;;16.33;66.73;99393.55;1690833;84;21822;-39
2021/09/14 04:09:54;;;;;;;10.95;9.25;;;;;;;16.38;66.85;99395.09;1607580;89;21642;-40
2021/09/14 04:12:23;;;;;;;12.07;9.60;;;;;;;16.40;66.87;99403.70;1754234;81;21012;-40
2021/09/14 04:14:52;;;;;;;13.75;9.98;;;;;;;16.41;66.83;99407.39;1752783;80;21604;-40
2021/09/14 04:17:19;;;;;;;10.93;9.75;;;;;;;16.43;66.71;99406.41;1750256;82;21235;-39
2021/09/14 04:19:46;;;;;;;13.48;9.90;;;;;;;16.41;66.71;99408.75;1751021;81;20922;-39
2021/09/14 04:22:13;;;;;;;12.53;9.60;;;;;;;16.43;66.65;99409.73;1751089;82;21037;-39
2021/09/14 04:24:41;;;;;;;11.75;9.25;;;;;;;16.46;66.62;99410.30;1714884;83;21013;-39
2021/09/14 04:27:09;;;;;;;12.10;9.65;;;;;;;16.49;66.54;99412.26;1715065;83;21095;-40
2021/09/14 04:29:38;;;;;;;11.08;9.80;;;;;;;16.41;66.74;99418.33;1714955;83;21256;-40
2021/09/14 04:32:07;;;;;;;11.50;9.80;;;;;;;16.35;66.94;99423.27;1751011;82;20945;-40
2021/09/14 04:34:33;;;;;;;11.43;9.45;;;;;;;16.32;67.02;99429.50;1750956;82;21045;-40
2021/09/14 04:37:00;;;;;;;9.80;8.80;;;;;;;16.25;67.29;99428.17;1751142;82;20977;-40
2021/09/14 04:39:27;;;;;;;12.30;8.95;;;;;;;16.26;67.44;99439.31;1714949;83;20985;-40
2021/09/14 04:43:13;;;;;;;13.28;8.98;;;;;;;16.34;67.67;99429.90;1836359;78;22985;-40
2021/09/14 04:45:42;;;;;;;15.18;9.90;;;;;;;16.24;68.00;99437.55;1787451;79;20917;-40
2021/09/14 04:48:10;;;;;;;12.20;10.00;;;;;;;16.25;68.20;99440.48;1753216;81;21601;-40
2021/09/14 04:50:38;;;;;;;10.78;9.68;;;;;;;16.30;68.27;99440.08;1719537;83;21816;-40
2021/09/14 04:53:06;;;;;;;10.88;9.38;;;;;;;16.34;68.31;99438.11;1708946;84;21032;-40
2021/09/14 04:55:35;;;;;;;9.68;8.70;;;;;;;16.37;68.33;99439.45;1709131;83;21817;-40
2021/09/14 04:58:02;;;;;;;11.85;9.35;;;;;;;16.42;68.32;99440.42;1709144;83;20938;-39
2021/09/14 05:00:29;;;;;;;11.08;9.68;;;;;;;16.49;68.21;99446.47;1709180;84;21123;-39
2021/09/14 05:02:56;;;;;;;11.93;9.65;;;;;;;16.48;68.43;99447.64;1708904;84;20946;-39
2021/09/14 05:05:23;;;;;;;12.47;10.08;;;;;;;16.52;68.53;99447.03;1709031;84;21530;-40
2021/09/14 05:07:50;;;;;;;11.48;9.70;;;;;;;16.54;68.46;99447.42;1718060;82;21003;-40
2021/09/14 05:10:16;;;;;;;12.00;9.95;;;;;;;16.56;68.52;99446.42;1738613;82;21037;-39
2021/09/14 05:12:45;;;;;;;11.00;9.90;;;;;;;16.61;68.56;99447.41;1737621;82;21150;-39
2021/09/14 05:15:14;;;;;;;11.63;9.93;;;;;;;16.68;68.70;99450.72;1735842;81;20961;-40
2021/09/14 05:17:48;;;;;;;12.15;10.13;;;;;;;16.68;68.89;99451.50;1661761;83;20938;-39
2021/09/14 05:20:25;;;;;;;11.55;10.00;;;;;;;16.71;69.04;99452.06;1708261;84;21468;-40
2021/09/14 05:23:00;;;;;;;12.65;10.20;;;;;;;16.72;69.20;99446.78;1709165;84;21037;-40
2021/09/14 05:25:23;;;;;;;10.25;9.25;;;;;;;16.74;69.34;99447.18;1708185;84;21045;-40
2021/09/14 05:27:50;;;;;;;10.70;9.60;;;;;;;16.78;69.51;99445.20;1712058;82;21013;-40
2021/09/14 05:30:16;;;;;;;12.98;10.45;;;;;;;16.85;69.57;99444.36;1709189;84;20978;-40
2021/09/14 05:32:43;;;;;;;11.95;9.88;;;;;;;16.87;69.84;99440.66;1709027;84;21065;-40
2021/09/14 05:35:10;;;;;;;12.23;10.50;;;;;;;16.95;69.92;99439.42;1712936;82;21124;-39
2021/09/14 05:37:38;;;;;;;13.30;10.00;;;;;;;17.05;69.86;99444.06;1738540;82;21126;-40
2021/09/14 05:40:06;;;;;;;11.20;9.33;;;;;;;17.12;69.65;99437.77;1738480;82;20922;-39
2021/09/14 05:42:34;;;;;;;12.20;9.55;;;;;;;17.25;69.63;99451.97;1744868;82;20978;-39
2021/09/14 05:45:01;;;;;;;12.88;10.32;;;;;;;17.39;69.45;99446.38;1749240;82;21640;-40
2021/09/14 05:47:28;;;;;;;12.15;10.35;;;;;;;17.47;69.40;99451.23;1749386;82;21035;-40
2021/09/14 05:49:58;;;;;;;15.40;9.75;;;;;;;17.51;68.92;99447.88;1746930;82;21751;-39
2021/09/14 05:52:24;;;;;;;11.68;9.58;;;;;;;17.53;68.91;99445.48;1730294;80;20929;-39
2021/09/14 05:54:51;;;;;;;12.50;9.60;;;;;;;17.58;68.59;99449.76;1719075;83;21542;-39
2021/09/14 05:57:19;;;;;;;14.00;10.10;;;;;;;17.58;68.47;99453.28;1729786;82;20999;-40
2021/09/14 05:59:48;;;;;;;14.40;9.85;;;;;;;17.63;68.58;99452.87;1749102;82;21012;-39
2021/09/14 06:02:16;;;;;;;11.63;9.53;;;;;;;17.65;68.45;99460.13;1748588;82;22011;-40
2021/09/14 06:04:43;;;;;;;12.35;10.25;;;;;;;17.65;67.76;99460.13;1748657;82;21629;-40
2021/09/14 06:07:11;;;;;;;12.43;9.38;;;;;;;17.63;67.93;99461.11;1748085;82;21475;-40
2021/09/14 06:09:38;;;;;;;11.25;9.00;;;;;;;17.64;67.73;99466.78;1748861;82;20936;-39
2021/09/14 06:12:06;;;;;;;11.18;9.40;;;;;;;17.72;67.78;99460.05;1748781;82;20997;-40
2021/09/14 06:14:33;;;;;;;11.53;9.03;;;;;;;17.83;67.65;99461.92;1717514;82;21135;-40
2021/09/14 06:17:03;;;;;;;13.50;10.23;;;;;;;17.88;67.20;99464.23;1748746;82;21578;-40
2021/09/14 06:19:30;;;;;;;15.23;10.05;;;;;;;17.91;66.78;99458.70;1748679;82;20996;-40
2021/09/14 06:21:57;;;;;;;10.55;8.70;;;;;;;17.92;66.64;99464.38;1748773;82;21566;-40
2021/09/14 06:24:24;;;;;;;9.55;8.05;;;;;;;17.98;66.61;99463.36;1748676;82;21024;-40
2021/09/14 06:26:51;;;;;;;11.12;8.13;;;;;;;18.09;66.14;99458.55;1746549;82;21116;-40
2021/09/14 06:29:18;;;;;;;10.43;8.20;;;;;;;18.20;65.91;99455.12;1748948;82;20979;-40
2021/09/14 06:31:46;;;;;;;11.55;8.93;;;;;;;18.32;65.56;99455.17;1748747;82;21032;-40
2021/09/14 06:34:14;;;;;;;12.98;9.50;;;;;;;18.42;65.46;99457.02;1744067;82;21474;-40
2021/09/14 06:36:41;;;;;;;10.58;8.23;;;;;;;18.52;65.00;99456.12;1721334;82;21032;-40
2021/09/14 06:39:08;;;;;;;10.65;8.23;;;;;;;18.58;64.91;99453.93;1718964;83;21076;-40
2021/09/14 06:41:34;;;;;;;13.25;7.45;;;;;;;18.64;64.15;99461.88;1718179;82;21515;-40
2021/09/14 06:44:04;;;;;;;11.65;7.75;;;;;;;18.68;63.73;99461.07;1708129;84;20925;-40
2021/09/14 06:46:49;;;;;;;9.58;7.22;;;;;;;18.75;63.68;99458.22;1706838;82;21008;-40
2021/09/14 06:49:17;;;;;;;9.13;7.30;;;;;;;18.86;63.09;99466.52;1708832;84;21087;-40
2021/09/14 06:51:44;;;;;;;9.40;6.83;;;;;;;18.95;62.62;99461.30;1755246;80;21172;-40
2021/09/14 06:54:11;;;;;;;13.15;6.70;;;;;;;19.01;62.46;99464.36;1743621;80;21019;-40
2021/09/14 06:56:40;;;;;;;8.73;6.60;;;;;;;19.07;61.66;99458.59;1737851;82;20917;-40
2021/09/14 06:59:06;;;;;;;7.78;6.40;;;;;;;19.12;62.10;99465.00;1738471;82;20956;-40
2021/09/14 07:01:33;;;;;;;8.30;6.65;;;;;;;19.22;61.15;99464.05;1738137;82;21642;-40
2021/09/14 07:04:00;;;;;;;9.85;7.42;;;;;;;19.31;60.66;99467.67;1738274;82;21178;-40
2021/09/14 07:06:29;;;;;;;9.10;7.28;;;;;;;19.39;61.08;99470.48;1738008;82;20933;-40
2021/09/14 07:09:00;;;;;;;10.05;6.28;;;;;;;19.51;61.05;99472.08;1738151;82;21063;-40
2021/09/14 07:11:31;;;;;;;10.38;6.05;;;;;;;19.68;60.37;99473.59;1737989;82;21024;-40
2021/09/14 07:14:02;;;;;;;9.05;6.92;;;;;;;19.83;58.85;99469.42;1738131;82;21037;-40
2021/09/14 07:16:32;;;;;;;8.90;6.35;;;;;;;19.93;59.48;99481.63;1737949;82;21110;-40
2021/09/14 07:18:59;;;;;;;10.60;5.83;;;;;;;20.04;59.13;99475.95;1738161;82;20922;-40
2021/09/14 07:21:29;;;;;;;9.03;5.67;;;;;;;20.14;59.23;99476.33;1738100;82;20957;-40
2021/09/14 07:24:00;;;;;;;7.53;5.37;;;;;;;20.28;58.72;99474.69;1728658;82;21044;-40
2021/09/14 07:26:27;;;;;;;7.40;5.60;;;;;;;20.45;57.26;99475.59;1708723;84;21083;-40
2021/09/14 07:28:57;;;;;;;8.93;5.30;;;;;;;20.51;56.49;99474.51;1708493;84;22349;-40
2021/09/14 07:31:30;;;;;;;8.53;4.30;;;;;;;20.58;57.02;99464.71;1708553;84;20988;-40
2021/09/14 07:33:58;;;;;;;7.00;3.97;;;;;;;20.66;55.33;99470.27;1709044;84;21563;-40
2021/09/14 07:36:26;;;;;;;6.62;4.20;;;;;;;20.70;55.00;99468.22;1708690;84;21562;-40
2021/09/14 07:38:52;;;;;;;10.58;4.35;;;;;;;20.72;54.65;99468.58;1708710;84;21491;-40
2021/09/14 07:41:20;;;;;;;4.97;3.55;;;;;;;20.74;54.33;99473.83;1708803;84;21149;-40
2021/09/14 07:43:47;;;;;;;6.22;3.77;;;;;;;20.83;54.85;99470.49;1718783;82;21037;-40
2021/09/14 07:46:16;;;;;;;4.60;3.60;;;;;;;20.90;53.13;99470.36;1720645;82;20960;-40
2021/09/14 07:48:44;;;;;;;4.33;3.40;;;;;;;20.95;53.76;99465.72;1708848;84;20953;-40
2021/09/14 07:51:11;;;;;;;6.60;4.35;;;;;;;21.04;53.97;99463.16;1710367;83;20945;-40
2021/09/14 07:53:37;;;;;;;5.30;3.70;;;;;;;21.12;52.95;99461.79;1724408;83;21140;-40
2021/09/14 07:56:04;;;;;;;3.90;3.17;;;;;;;21.19;53.39;99465.03;1724604;83;21019;-40
2021/09/14 07:58:30;;;;;;;4.72;3.35;;;;;;;21.26;51.76;99456.58;1726451;83;20982;-40
2021/09/14 08:00:57;;;;;;;3.60;3.10;;;;;;;21.27;51.97;99458.14;1709865;83;21086;-40
2021/09/14 08:03:24;;;;;;;6.92;3.85;;;;;;;21.28;52.17;99460.30;1698733;84;21049;-40
2021/09/14 08:05:51;;;;;;;5.45;3.25;;;;;;;21.37;52.37;99457.12;1698582;84;21816;-40
2021/09/14 08:08:18;;;;;;;5.50;3.58;;;;;;;21.48;52.61;99463.77;1673239;83;21665;-40
2021/09/14 08:10:46;;;;;;;5.00;3.05;;;;;;;21.61;51.83;99466.01;1685801;85;21013;-40
2021/09/14 08:13:12;;;;;;;4.35;3.00;;;;;;;21.68;51.12;99465.84;1689938;84;21018;-40
2021/09/14 08:15:39;;;;;;;5.78;3.60;;;;;;;21.74;50.75;99465.48;1698526;84;20999;-40
2021/09/14 08:18:05;;;;;;;5.08;3.45;;;;;;;21.80;50.50;99464.36;1698763;84;21767;-40
2021/09/14 08:20:33;;;;;;;4.62;3.40;;;;;;;21.82;49.82;99464.11;1698555;84;21006;-40
2021/09/14 08:23:00;;;;;;;7.97;3.90;;;;;;;21.84;50.16;99472.72;1698764;84;21599;-40
2021/09/14 08:25:28;;;;;;;9.10;4.12;;;;;;;21.91;50.00;99473.16;1698446;84;21078;-40
2021/09/14 08:27:57;;;;;;;5.17;3.15;;;;;;;21.94;49.76;99475.84;1691610;83;20994;-40
2021/09/14 08:30:25;;;;;;;5.05;3.25;;;;;;;22.00;50.21;99478.27;1713305;82;20981;-40
2021/09/14 08:32:51;;;;;;;5.67;3.27;;;;;;;22.04;49.54;99472.64;1678038;85;21013;-40
2021/09/14 08:35:19;;;;;;;6.62;3.02;;;;;;;22.03;48.75;99474.63;1695565;84;20935;-40
2021/09/14 08:37:47;;;;;;;6.77;3.10;;;;;;;22.05;48.46;99479.72;1695927;84;21618;-40
2021/09/14 08:40:14;;;;;;;6.30;2.58;;;;;;;22.11;48.21;99473.85;1703846;84;21174;-40
2021/09/14 08:42:41;;;;;;;5.10;2.75;;;;;;;22.22;48.48;99472.20;1704074;84;21837;-40
2021/09/14 08:45:10;;;;;;;4.65;2.92;;;;;;;22.32;47.34;99473.87;1704857;83;21031;-40
2021/09/14 08:47:38;;;;;;;6.03;3.10;;;;;;;22.36;48.04;99471.81;1722592;83;21048;-40
2021/09/14 08:50:06;;;;;;;4.95;3.08;;;;;;;22.39;48.70;99463.42;1722558;83;21049;-40
2021/09/14 08:52:33;;;;;;;5.80;3.08;;;;;;;22.46;48.32;99467.34;1722417;82;21096;-40
2021/09/14 08:55:00;;;;;;;5.83;3.22;;;;;;;22.54;48.07;99468.72;1722414;83;21117;-40
2021/09/14 08:57:26;;;;;;;6.40;3.10;;;;;;;22.61;46.80;99462.20;1737955;81;20953;-40
2021/09/14 09:00:00;;;;;;;6.75;3.00;;;;;;;22.64;46.20;99467.47;1752741;81;21012;-40
2021/09/14 09:02:28;;;;;;;4.58;2.90;;;;;;;22.69;46.89;99462.80;1750982;81;21009;-40
2021/09/14 09:05:07;;;;;;;4.30;2.58;;;;;;;22.77;45.96;99467.70;1746604;80;21096;-40
2021/09/14 09:07:37;;;;;;;4.87;3.00;;;;;;;22.89;45.84;99465.58;1750141;81;21106;-40
2021/09/14 09:10:14;;;;;;;6.92;2.55;;;;;;;23.06;45.06;99468.23;1748537;82;20956;-40
2021/09/14 09:12:46;;;;;;;7.85;3.00;;;;;;;23.11;45.30;99456.02;1748664;82;21087;-40
2021/09/14 09:15:33;;;;;;;3.70;2.90;;;;;;;23.17;44.55;99461.78;1748659;82;20958;-40
2021/09/14 09:18:09;;;;;;;5.70;2.65;;;;;;;23.19;44.41;99473.94;1736078;81;21135;-40
2021/09/14 09:20:46;;;;;;;3.05;2.62;;;;;;;23.24;44.46;99461.55;1741118;81;21114;-40
2021/09/14 09:23:25;;;;;;;3.87;2.80;;;;;;;23.37;44.87;99460.96;1752500;81;21550;-40
2021/09/14 09:26:06;;;;;;;3.20;2.27;;;;;;;23.61;44.93;99453.11;1752559;81;21021;-40
2021/09/14 09:28:33;;;;;;;5.15;3.27;;;;;;;23.83;44.34;99457.48;1752564;81;21013;-40
2021/09/14 09:31:00;;;;;;;4.35;2.85;;;;;;;24.00;44.38;99454.57;1741010;80;21625;-40
2021/09/14 09:33:29;;;;;;;3.40;2.60;;;;;;;24.13;42.55;99459.45;1727001;80;21154;-40
2021/09/14 09:36:07;;;;;;;5.00;3.10;;;;;;;24.19;42.27;99449.38;1750354;81;21024;-40
2021/09/14 09:38:51;;;;;;;4.65;3.10;;;;;;;24.36;42.90;99449.95;1747407;80;21005;-40
2021/09/14 09:41:18;;;;;;;3.80;3.05;;;;;;;24.53;41.75;99447.95;1750024;81;21567;-40
2021/09/14 09:43:46;;;;;;;4.28;2.87;;;;;;;24.62;40.86;99443.84;1750347;80;21040;-40
2021/09/14 09:46:21;;;;;;;3.87;2.85;;;;;;;24.54;41.35;99445.34;1723337;82;21076;-40
2021/09/14 09:48:48;;;;;;;3.92;2.80;;;;;;;24.42;41.28;99444.00;1712559;83;20957;-40
2021/09/14 09:51:16;;;;;;;3.33;2.60;;;;;;;24.39;42.48;99451.84;1723874;82;21013;-40
2021/09/14 09:53:42;;;;;;;4.25;2.77;;;;;;;24.51;41.82;99449.61;1736201;82;21080;-40
2021/09/14 09:56:09;;;;;;;5.70;2.72;;;;;;;24.60;42.24;99449.05;1736222;82;21017;-40
2021/09/14 09:58:36;;;;;;;4.72;2.40;;;;;;;24.74;41.87;99447.75;1736463;81;21757;-40
2021/09/14 10:01:10;;;;;;;2.85;2.30;;;;;;;24.85;40.38;99452.90;1738584;81;21009;-40
2021/09/14 10:04:04;;;;;;;4.00;2.20;;;;;;;24.86;38.98;99452.45;1717230;81;21020;-40
2021/09/14 10:06:41;;;;;;;3.67;2.33;;;;;;;24.76;39.40;99457.78;1723681;82;20981;-41
2021/09/14 10:09:07;;;;;;;4.58;2.75;;;;;;;24.78;39.72;99458.73;1734109;81;21061;-41
2021/09/14 10:11:36;;;;;;;3.52;2.27;;;;;;;24.81;39.21;99453.05;1739111;81;21056;-41
2021/09/14 10:14:16;;;;;;;2.90;2.27;;;;;;;24.75;39.34;99452.08;1711054;82;21476;-41
2021/09/14 10:16:46;;;;;;;3.60;2.58;;;;;;;24.73;39.66;99451.00;1737011;82;21805;-41
2021/09/14 10:19:16;;;;;;;;;;;;;;;24.82;39.97;99453.82;1738920;82;20937;-41
2021/09/14 10:21:47;;;;;;;3.40;2.65;;;;;;;24.95;40.54;99453.14;1735987;82;20229;-41
2021/09/14 10:24:21;;;;;;;3.83;2.70;;;;;;;25.01;40.15;99443.78;1735276;81;21203;-41
2021/09/14 10:26:52;;;;;;;4.25;2.80;;;;;;;25.10;39.81;99445.82;1742127;82;21063;-41
2021/09/14 10:29:23;;;;;;;5.20;2.55;;;;;;;25.17;39.73;99448.95;1742188;81;20917;-41
2021/09/14 10:32:01;;;;;;;3.77;2.77;;;;;;;25.26;40.10;99443.42;1729639;82;20977;-41
2021/09/14 10:34:27;;;;;;;3.58;2.20;;;;;;;25.44;39.01;99451.81;1742117;82;21650;-41
2021/09/14 10:37:02;;;;;;;3.20;2.17;;;;;;;25.55;38.57;99452.80;1742304;81;21000;-41
2021/09/14 10:39:36;;;;;;;3.47;2.60;;;;;;;25.49;38.69;99453.38;1740207;81;21475;-41
2021/09/14 10:42:22;;;;;;;4.85;2.58;;;;;;;25.40;39.04;99451.96;1738289;82;21000;-41
2021/09/14 10:44:51;;;;;;;3.17;2.55;;;;;;;25.25;39.22;99454.36;1742196;80;21059;-41
2021/09/14 10:47:20;;;;;;;5.10;2.33;;;;;;;25.00;39.57;99454.72;1751127;80;21612;-41
2021/09/14 10:49:51;;;;;;;;;;;;;;;24.79;39.45;99457.48;1752027;82;21747;-41
2021/09/14 10:52:33;;;;;;;4.22;2.40;;;;;;;24.50;39.32;99463.30;1719531;81;20133;-41
2021/09/14 10:55:11;;;;;;;4.42;2.60;;;;;;;24.11;40.40;99463.27;1748569;82;20936;-41
2021/09/14 10:57:40;;;;;;;6.67;2.75;;;;;;;23.91;40.94;99455.88;1749857;82;20991;-41
2021/09/14 11:00:10;;;;;;;5.47;2.40;;;;;;;23.78;41.81;99461.42;1750012;81;21044;-41
2021/09/14 11:02:39;;;;;;;4.40;2.37;;;;;;;23.69;41.91;99464.88;1749682;82;21539;-41
2021/09/14 11:05:07;;;;;;;3.55;2.77;;;;;;;23.61;42.63;99456.65;1749707;82;20976;-41
2021/09/14 11:07:34;;;;;;;4.42;2.50;;;;;;;23.64;42.58;99454.97;1749748;82;21048;-41
2021/09/14 11:10:11;;;;;;;4.67;2.70;;;;;;;23.73;43.09;99455.84;1749786;82;21099;-41
2021/09/14 11:12:46;;;;;;;6.37;2.50;;;;;;;23.98;43.02;99455.61;1735367;81;21039;-41
2021/09/14 11:15:14;;;;;;;3.05;2.42;;;;;;;24.33;41.07;99451.64;1755724;80;21008;-41
2021/09/14 11:17:41;;;;;;;4.25;2.40;;;;;;;24.71;39.82;99448.67;1755753;81;21488;-41
2021/09/14 11:20:18;;;;;;;5.95;2.42;;;;;;;25.06;38.89;99452.91;1755842;80;21005;-41
2021/09/14 11:22:44;;;;;;;6.20;2.70;;;;;;;25.37;38.00;99445.14;1755564;80;21016;-41
2021/09/14 11:25:18;;;;;;;2.87;2.20;;;;;;;25.63;37.95;99446.49;1744271;81;21595;-41
2021/09/14 11:28:03;;;;;;;5.03;2.60;;;;;;;25.90;37.96;99438.20;1725525;82;21120;-41
2021/09/14 11:30:32;;;;;;;4.35;2.65;;;;;;;26.20;36.28;99442.07;1725499;83;21539;-41
2021/09/14 11:32:59;;;;;;;5.57;2.60;;;;;;;26.36;37.07;99430.67;1725894;83;21562;-41
2021/09/14 11:35:30;;;;;;;3.90;2.10;;;;;;;26.65;37.00;99433.56;1725628;83;21519;-41
2021/09/14 11:38:08;;;;;;;3.75;2.30;;;;;;;26.93;34.47;99440.62;1725593;83;21044;-41
2021/09/14 11:40:50;;;;;;;4.83;2.20;;;;;;;26.87;34.05;99445.27;1725649;82;21101;-41
2021/09/14 11:43:33;;;;;;;4.08;2.17;;;;;;;26.49;34.60;99452.73;1725604;83;21035;-41
2021/09/14 11:46:17;;;;;;;4.50;2.20;;;;;;;25.99;35.36;99441.62;1727105;81;21016;-41
2021/09/14 11:48:58;;;;;;;3.77;2.40;;;;;;;25.58;37.01;99447.70;1727918;83;21096;-41
2021/09/14 11:51:30;;;;;;;5.15;2.47;;;;;;;25.30;37.56;99444.05;1739354;81;21048;-41
2021/09/14 11:53:59;;;;;;;4.30;2.40;;;;;;;25.08;37.43;99442.11;1753352;80;21488;-41
2021/09/14 11:56:27;;;;;;;3.80;2.55;;;;;;;24.89;37.72;99441.86;1751535;81;20973;-41
2021/09/14 11:58:54;;;;;;;4.45;3.02;;;;;;;24.69;38.55;99442.79;1758389;81;20976;-41
2021/09/14 12:01:25;;;;;;;3.75;2.65;;;;;;;24.52;38.55;99440.85;1758029;81;21653;-41
2021/09/14 12:03:54;;;;;;;4.80;2.50;;;;;;;24.52;38.63;99440.08;1757232;81;21060;-41
2021/09/14 12:06:33;;;;;;;3.52;2.22;;;;;;;24.80;38.92;99441.01;1758346;81;21125;-41
2021/09/14 12:09:08;;;;;;;2.95;2.22;;;;;;;25.25;37.55;99441.27;1758035;81;21009;-41
2021/09/14 12:11:34;;;;;;;3.30;2.30;;;;;;;25.51;35.23;99439.79;1757987;81;21035;-41
2021/09/14 12:14:11;;;;;;;3.65;2.10;;;;;;;25.57;35.49;99440.61;1758057;81;21052;-41
2021/09/14 12:16:44;;;;;;;2.92;2.20;;;;;;;25.56;35.25;99433.53;1756360;80;21055;-41
2021/09/14 12:19:08;;;;;;;2.45;1.95;;;;;;;25.51;34.31;99428.69;1754644;81;25521;-41
2021/09/14 12:21:35;;;;;;;3.75;2.00;;;;;;;25.37;34.99;99431.27;1757983;81;21028;-41
2021/09/14 12:24:04;;;;;;;2.87;1.92;;;;;;;25.39;35.10;99429.59;1758089;81;20925;-41
2021/09/14 12:26:37;;;;;;;3.95;2.58;;;;;;;25.36;35.15;99428.36;1756086;80;21029;-41
2021/09/14 12:29:02;;;;;;;3.20;2.40;;;;;;;25.32;36.03;99428.48;1759023;80;20996;-41
2021/09/14 12:31:30;;;;;;;3.50;2.40;;;;;;;25.24;36.68;99430.00;1759658;81;21063;-41
2021/09/14 12:33:57;;;;;;;5.15;2.00;;;;;;;25.06;37.44;99432.70;1760454;80;20904;-41
2021/09/14 12:36:25;;;;;;;3.05;2.30;;;;;;;24.95;38.22;99435.89;1758648;81;20928;-41